createdAt,value
2019-05-01T00:00:19.208Z,0.00
2019-05-01T00:01:19.637Z,0.00
2019-05-01T00:02:20.079Z,0.00
2019-05-01T00:03:20.501Z,0.00
2019-05-01T00:04:20.938Z,0.00
2019-05-01T00:05:21.371Z,0.00
2019-05-01T00:06:21.847Z,0.00
2019-05-01T00:08:56.418Z,0.00
2019-05-01T00:09:56.844Z,0.00
2019-05-01T00:11:52.394Z,0.00
2019-05-01T00:12:52.819Z,0.00
2019-05-01T00:14:47.389Z,0.00
2019-05-01T00:15:47.811Z,0.00
2019-05-01T00:17:42.367Z,0.00
2019-05-01T00:18:42.807Z,0.00
2019-05-01T00:20:37.372Z,0.00
2019-05-01T00:21:37.815Z,0.00
2019-05-01T00:23:33.337Z,0.00
2019-05-01T00:24:33.839Z,0.00
2019-05-01T00:26:29.320Z,0.00
2019-05-01T00:27:29.748Z,0.00
2019-05-01T00:29:24.298Z,0.00
2019-05-01T00:30:30.092Z,0.00
2019-05-01T00:32:20.309Z,0.00
2019-05-01T00:33:20.723Z,0.00
2019-05-01T00:35:15.327Z,0.00
2019-05-01T00:36:15.696Z,0.00
2019-05-01T00:39:46.604Z,0.00
2019-05-01T00:42:20.116Z,0.00
2019-05-01T00:44:53.631Z,0.00
2019-05-01T00:45:54.055Z,0.00
2019-05-01T00:47:48.622Z,0.00
2019-05-01T00:48:49.051Z,0.00
2019-05-01T00:50:44.615Z,0.00
2019-05-01T00:51:45.028Z,0.00
2019-05-01T00:53:39.592Z,0.00
2019-05-01T00:54:40.035Z,0.00
2019-05-01T00:56:35.586Z,0.00
2019-05-01T00:57:36.009Z,0.00
2019-05-01T00:59:30.583Z,0.00
2019-05-01T01:00:42.547Z,0.00
2019-05-01T01:01:31.443Z,0.00
2019-05-01T01:02:31.878Z,0.00
2019-05-01T01:03:32.321Z,0.00
2019-05-01T01:04:32.748Z,0.00
2019-05-01T01:05:33.176Z,0.00
2019-05-01T01:06:33.607Z,0.00
2019-05-01T01:07:34.041Z,0.00
2019-05-01T01:08:34.473Z,0.00
2019-05-01T01:09:34.903Z,0.00
2019-05-01T01:10:35.340Z,0.00
2019-05-01T01:11:35.770Z,0.00
2019-05-01T01:12:36.202Z,0.00
2019-05-01T01:13:36.635Z,0.00
2019-05-01T01:14:37.069Z,0.00
2019-05-01T01:15:37.503Z,0.00
2019-05-01T01:16:37.933Z,0.00
2019-05-01T01:17:38.371Z,0.00
2019-05-01T01:18:38.804Z,0.00
2019-05-01T01:19:39.232Z,0.00
2019-05-01T01:20:39.666Z,0.00
2019-05-01T01:21:40.103Z,0.00
2019-05-01T01:22:40.530Z,0.00
2019-05-01T01:23:40.967Z,0.00
2019-05-01T01:24:41.393Z,0.00
2019-05-01T01:25:41.827Z,0.00
2019-05-01T01:26:42.262Z,0.00
2019-05-01T01:27:42.690Z,0.00
2019-05-01T01:28:43.121Z,0.00
2019-05-01T01:29:43.562Z,0.00
2019-05-01T01:30:55.610Z,0.00
2019-05-01T01:31:44.421Z,0.00
2019-05-01T01:32:44.853Z,0.00
2019-05-01T01:33:45.285Z,0.00
2019-05-01T01:34:45.780Z,0.00
2019-05-01T01:35:46.157Z,0.00
2019-05-01T01:36:46.584Z,0.00
2019-05-01T01:37:47.017Z,0.00
2019-05-01T01:38:47.447Z,0.00
2019-05-01T01:39:47.885Z,0.00
2019-05-01T01:40:48.309Z,0.00
2019-05-01T01:41:48.741Z,0.00
2019-05-01T01:42:49.183Z,0.00
2019-05-01T01:43:49.607Z,0.00
2019-05-01T01:44:50.040Z,0.00
2019-05-01T01:45:50.469Z,0.00
2019-05-01T01:46:50.924Z,0.00
2019-05-01T01:47:51.329Z,0.00
2019-05-01T01:48:51.778Z,0.00
2019-05-01T01:49:52.199Z,0.00
2019-05-01T01:50:52.649Z,0.00
2019-05-01T01:51:53.067Z,0.00
2019-05-01T01:52:53.747Z,0.00
2019-05-01T01:53:53.928Z,0.00
2019-05-01T01:54:54.361Z,0.00
2019-05-01T01:55:54.792Z,0.00
2019-05-01T01:56:55.230Z,0.00
2019-05-01T01:57:55.670Z,0.00
2019-05-01T01:58:56.086Z,0.00
2019-05-01T01:59:56.521Z,0.00
2019-05-01T02:01:08.992Z,0.00
2019-05-01T02:01:57.377Z,0.00
2019-05-01T02:02:57.812Z,0.00
2019-05-01T02:03:58.240Z,0.00
2019-05-01T02:04:58.669Z,0.00
2019-05-01T02:05:59.103Z,0.00
2019-05-01T02:06:59.532Z,0.00
2019-05-01T02:07:59.964Z,0.00
2019-05-01T02:09:00.397Z,0.00
2019-05-01T02:10:00.852Z,0.00
2019-05-01T02:11:01.267Z,0.00
2019-05-01T02:12:01.697Z,0.00
2019-05-01T02:13:02.122Z,0.00
2019-05-01T02:14:02.554Z,0.00
2019-05-01T02:15:02.976Z,0.00
2019-05-01T02:16:03.421Z,0.00
2019-05-01T02:17:03.844Z,0.00
2019-05-01T02:18:04.275Z,0.00
2019-05-01T02:19:04.707Z,0.00
2019-05-01T02:20:05.137Z,0.00
2019-05-01T02:21:05.575Z,0.00
2019-05-01T02:22:06.003Z,0.00
2019-05-01T02:23:06.431Z,0.00
2019-05-01T02:24:06.863Z,0.00
2019-05-01T02:25:07.294Z,0.00
2019-05-01T02:26:07.725Z,0.00
2019-05-01T02:27:08.155Z,0.00
2019-05-01T02:28:08.597Z,0.00
2019-05-01T02:29:09.031Z,0.00
2019-05-01T02:30:09.458Z,0.00
2019-05-01T02:31:26.701Z,0.00
2019-05-01T02:32:10.309Z,0.00
2019-05-01T02:33:10.740Z,0.00
2019-05-01T02:34:11.215Z,0.00
2019-05-01T02:35:11.610Z,0.00
2019-05-01T02:36:12.038Z,0.00
2019-05-01T02:37:12.473Z,0.00
2019-05-01T02:38:12.900Z,0.00
2019-05-01T02:39:13.326Z,0.00
2019-05-01T02:40:13.751Z,0.00
2019-05-01T02:41:14.193Z,0.00
2019-05-01T02:42:14.631Z,0.00
2019-05-01T02:43:15.049Z,0.00
2019-05-01T02:44:15.477Z,0.00
2019-05-01T02:45:15.912Z,0.00
2019-05-01T02:46:16.341Z,0.00
2019-05-01T02:47:16.770Z,0.00
2019-05-01T02:48:17.198Z,0.00
2019-05-01T02:49:17.800Z,0.00
2019-05-01T02:50:18.071Z,0.00
2019-05-01T02:51:18.491Z,0.00
2019-05-01T02:52:18.929Z,0.00
2019-05-01T02:53:19.359Z,0.00
2019-05-01T02:54:19.785Z,0.00
2019-05-01T02:55:20.214Z,0.00
2019-05-01T02:56:20.648Z,0.00
2019-05-01T02:57:21.077Z,0.00
2019-05-01T02:58:21.502Z,0.00
2019-05-01T02:59:21.935Z,0.00
2019-05-01T03:00:22.383Z,0.00
2019-05-01T03:01:22.802Z,4.00
2019-05-01T03:02:23.228Z,4.00
2019-05-01T03:03:23.659Z,4.00
2019-05-01T03:04:24.093Z,4.00
2019-05-01T03:05:24.520Z,0.00
2019-05-01T03:06:24.953Z,4.00
2019-05-01T03:07:25.378Z,4.00
2019-05-01T03:08:25.804Z,0.00
2019-05-01T03:09:26.238Z,4.00
2019-05-01T03:10:26.666Z,4.00
2019-05-01T03:11:27.098Z,8.00
2019-05-01T03:12:27.529Z,4.00
2019-05-01T03:13:27.959Z,8.00
2019-05-01T03:14:28.388Z,4.00
2019-05-01T03:15:28.822Z,8.00
2019-05-01T03:16:29.249Z,8.00
2019-05-01T03:17:29.707Z,8.00
2019-05-01T03:18:30.114Z,12.00
2019-05-01T03:19:30.537Z,8.00
2019-05-01T03:20:30.968Z,12.00
2019-05-01T03:21:31.403Z,8.00
2019-05-01T03:22:31.824Z,12.00
2019-05-01T03:23:32.268Z,12.00
2019-05-01T03:24:32.687Z,16.00
2019-05-01T03:25:33.127Z,16.00
2019-05-01T03:26:33.550Z,20.00
2019-05-01T03:27:33.982Z,24.00
2019-05-01T03:28:34.413Z,28.00
2019-05-01T03:29:34.840Z,36.00
2019-05-01T03:30:35.268Z,36.00
2019-05-01T03:31:35.714Z,40.00
2019-05-01T03:32:36.128Z,40.00
2019-05-01T03:33:36.560Z,44.00
2019-05-01T03:34:36.981Z,52.00
2019-05-01T03:35:37.415Z,60.00
2019-05-01T03:36:37.851Z,68.00
2019-05-01T03:37:38.274Z,76.00
2019-05-01T03:38:38.704Z,76.00
2019-05-01T03:39:39.136Z,76.00
2019-05-01T03:40:39.563Z,80.00
2019-05-01T03:41:40.002Z,84.00
2019-05-01T03:42:40.425Z,92.00
2019-05-01T03:43:40.853Z,100.00
2019-05-01T03:44:41.282Z,112.00
2019-05-01T03:45:41.718Z,124.00
2019-05-01T03:46:42.145Z,140.00
2019-05-01T03:47:42.569Z,160.00
2019-05-01T03:48:43.026Z,176.00
2019-05-01T03:49:43.461Z,180.00
2019-05-01T03:50:46.840Z,192.00
2019-05-01T03:51:44.291Z,200.00
2019-05-01T03:52:44.719Z,208.00
2019-05-01T03:53:45.160Z,212.00
2019-05-01T03:54:45.614Z,216.00
2019-05-01T03:55:46.007Z,232.00
2019-05-01T03:56:46.439Z,244.00
2019-05-01T03:57:46.866Z,252.00
2019-05-01T03:58:47.294Z,260.00
2019-05-01T03:59:47.725Z,260.00
2019-05-01T04:00:48.152Z,256.00
2019-05-01T04:01:48.586Z,268.00
2019-05-01T04:02:49.015Z,276.00
2019-05-01T04:03:49.454Z,284.00
2019-05-01T04:04:49.873Z,284.00
2019-05-01T04:05:50.299Z,284.00
2019-05-01T04:06:50.727Z,276.00
2019-05-01T04:07:51.160Z,288.00
2019-05-01T04:08:51.589Z,304.00
2019-05-01T04:09:52.017Z,348.00
2019-05-01T04:10:52.451Z,412.00
2019-05-01T04:11:52.873Z,500.00
2019-05-01T04:12:53.306Z,576.00
2019-05-01T04:13:53.734Z,628.00
2019-05-01T04:14:54.166Z,648.00
2019-05-01T04:15:54.592Z,664.00
2019-05-01T04:16:55.035Z,672.00
2019-05-01T04:17:55.451Z,684.00
2019-05-01T04:18:55.881Z,688.00
2019-05-01T04:19:56.319Z,704.00
2019-05-01T04:20:56.740Z,708.00
2019-05-01T04:21:57.171Z,652.00
2019-05-01T04:22:57.607Z,604.00
2019-05-01T04:23:58.030Z,580.00
2019-05-01T04:24:58.461Z,576.00
2019-05-01T04:25:58.887Z,600.00
2019-05-01T04:26:59.314Z,644.00
2019-05-01T04:27:59.754Z,696.00
2019-05-01T04:29:00.174Z,724.00
2019-05-01T04:30:00.600Z,724.00
2019-05-01T04:31:01.032Z,744.00
2019-05-01T04:32:01.460Z,756.00
2019-05-01T04:33:01.891Z,740.00
2019-05-01T04:34:02.319Z,704.00
2019-05-01T04:35:02.811Z,656.00
2019-05-01T04:36:26.919Z,636.00
2019-05-01T04:37:03.606Z,632.00
2019-05-01T04:38:04.035Z,644.00
2019-05-01T04:39:04.477Z,672.00
2019-05-01T04:40:04.892Z,704.00
2019-05-01T04:41:05.319Z,740.00
2019-05-01T04:42:05.751Z,780.00
2019-05-01T04:43:06.179Z,856.00
2019-05-01T04:44:06.618Z,940.00
2019-05-01T04:45:07.044Z,976.00
2019-05-01T04:46:10.424Z,1020.00
2019-05-01T04:47:07.896Z,1024.00
2019-05-01T04:48:08.327Z,1020.00
2019-05-01T04:49:08.757Z,996.00
2019-05-01T04:50:09.201Z,1004.00
2019-05-01T04:51:09.613Z,1016.00
2019-05-01T04:52:10.041Z,1028.00
2019-05-01T04:53:10.468Z,1024.00
2019-05-01T04:54:10.901Z,1032.00
2019-05-01T04:55:11.327Z,1036.00
2019-05-01T04:56:12.424Z,1056.00
2019-05-01T04:57:14.940Z,1088.00
2019-05-01T04:58:12.694Z,1140.00
2019-05-01T04:59:15.922Z,1252.00
2019-05-01T05:00:13.472Z,1360.00
2019-05-01T05:01:13.965Z,1520.00
2019-05-01T05:02:14.345Z,1752.00
2019-05-01T05:03:14.755Z,2068.00
2019-05-01T05:04:15.193Z,2444.00
2019-05-01T05:05:15.625Z,2696.00
2019-05-01T05:06:16.058Z,2976.00
2019-05-01T05:07:16.482Z,3220.00
2019-05-01T05:08:16.907Z,3480.00
2019-05-01T05:09:17.329Z,3664.00
2019-05-01T05:10:17.768Z,3684.00
2019-05-01T05:11:18.188Z,3840.00
2019-05-01T05:12:18.622Z,4168.00
2019-05-01T05:14:19.472Z,4128.00
2019-05-01T05:15:19.908Z,3932.00
2019-05-01T05:16:20.337Z,3700.00
2019-05-01T05:17:20.931Z,3488.00
2019-05-01T05:18:21.190Z,3272.00
2019-05-01T05:19:36.428Z,3032.00
2019-05-01T05:20:22.053Z,2916.00
2019-05-01T05:21:22.500Z,2884.00
2019-05-01T05:22:22.921Z,2900.00
2019-05-01T05:23:23.346Z,2952.00
2019-05-01T05:24:23.776Z,3148.00
2019-05-01T05:25:24.201Z,3344.00
2019-05-01T05:26:24.630Z,3508.00
2019-05-01T05:27:25.063Z,3696.00
2019-05-01T05:28:25.491Z,3764.00
2019-05-01T05:29:25.919Z,3916.00
2019-05-01T05:30:26.351Z,4164.00
2019-05-01T05:31:26.779Z,4204.00
2019-05-01T05:32:27.212Z,4516.00
2019-05-01T05:33:27.637Z,4720.00
2019-05-01T05:34:28.087Z,4668.00
2019-05-01T05:35:28.510Z,4676.00
2019-05-01T05:36:28.930Z,4724.00
2019-05-01T05:37:29.358Z,4736.00
2019-05-01T05:38:29.784Z,4828.00
2019-05-01T05:39:30.218Z,5112.00
2019-05-01T05:40:30.645Z,5648.00
2019-05-01T05:41:31.078Z,5928.00
2019-05-01T05:42:31.508Z,6064.00
2019-05-01T05:43:31.940Z,6320.00
2019-05-01T05:44:32.366Z,6708.00
2019-05-01T05:45:32.793Z,6292.00
2019-05-01T05:46:33.231Z,6020.00
2019-05-01T05:47:33.685Z,6396.00
2019-05-01T05:48:34.086Z,6896.00
2019-05-01T05:49:34.512Z,6888.00
2019-05-01T05:50:34.948Z,7112.00
2019-05-01T05:51:35.377Z,7700.00
2019-05-01T05:52:35.800Z,7892.00
2019-05-01T05:53:36.233Z,7664.00
2019-05-01T05:54:36.669Z,7668.00
2019-05-01T05:55:37.095Z,7264.00
2019-05-01T05:56:37.517Z,7028.00
2019-05-01T05:57:37.954Z,7268.00
2019-05-01T05:58:38.388Z,6824.00
2019-05-01T05:59:38.813Z,6736.00
2019-05-01T06:00:39.245Z,6760.00
2019-05-01T06:01:39.673Z,6808.00
2019-05-01T06:02:40.107Z,6864.00
2019-05-01T06:03:40.563Z,6884.00
2019-05-01T06:04:40.966Z,6804.00
2019-05-01T06:05:41.429Z,7020.00
2019-05-01T06:06:41.836Z,7364.00
2019-05-01T06:07:42.259Z,7532.00
2019-05-01T06:08:42.687Z,7660.00
2019-05-01T06:09:44.644Z,7360.00
2019-05-01T06:10:43.552Z,6676.00
2019-05-01T06:11:43.984Z,5832.00
2019-05-01T06:12:46.755Z,5068.00
2019-05-01T06:13:44.838Z,4696.00
2019-05-01T06:14:45.319Z,4584.00
2019-05-01T06:15:45.708Z,4476.00
2019-05-01T06:16:46.903Z,4244.00
2019-05-01T06:17:46.567Z,4360.00
2019-05-01T06:18:47.016Z,4636.00
2019-05-01T06:19:49.592Z,4760.00
2019-05-01T06:20:47.867Z,4520.00
2019-05-01T06:21:48.291Z,4208.00
2019-05-01T06:22:48.723Z,3808.00
2019-05-01T06:23:52.810Z,3444.00
2019-05-01T06:24:49.586Z,3236.00
2019-05-01T06:25:54.320Z,3128.00
2019-05-01T06:26:50.448Z,3064.00
2019-05-01T06:27:50.871Z,3136.00
2019-05-01T06:28:51.304Z,3276.00
2019-05-01T06:29:51.737Z,3312.00
2019-05-01T06:30:52.173Z,3532.00
2019-05-01T06:31:53.904Z,3816.00
2019-05-01T06:32:53.031Z,4324.00
2019-05-01T06:33:54.968Z,5144.00
2019-05-01T06:34:53.904Z,6108.00
2019-05-01T06:35:54.316Z,6812.00
2019-05-01T06:36:54.743Z,7448.00
2019-05-01T06:37:56.012Z,8920.00
2019-05-01T06:38:55.606Z,10288.00
2019-05-01T06:39:56.038Z,9912.00
2019-05-01T06:40:58.287Z,7756.00
2019-05-01T06:41:56.900Z,4836.00
2019-05-01T06:42:57.330Z,3800.00
2019-05-01T06:44:02.094Z,3488.00
2019-05-01T06:44:58.195Z,3552.00
2019-05-01T06:45:59.945Z,3952.00
2019-05-01T06:47:03.398Z,4240.00
2019-05-01T06:47:59.488Z,4380.00
2019-05-01T06:48:59.907Z,5048.00
2019-05-01T06:50:01.194Z,5752.00
2019-05-01T06:51:00.776Z,5680.00
2019-05-01T06:52:01.227Z,5880.00
2019-05-01T06:53:04.525Z,5952.00
2019-05-01T06:54:02.064Z,5660.00
2019-05-01T06:55:02.493Z,5628.00
2019-05-01T06:56:02.928Z,6136.00
2019-05-01T06:57:03.352Z,6712.00
2019-05-01T06:58:03.787Z,7416.00
2019-05-01T06:59:04.214Z,7844.00
2019-05-01T07:00:08.044Z,7732.00
2019-05-01T07:01:05.081Z,7560.00
2019-05-01T07:02:05.505Z,7564.00
2019-05-01T07:03:10.111Z,5468.00
2019-05-01T07:04:06.370Z,4932.00
2019-05-01T07:05:09.078Z,4424.00
2019-05-01T07:06:14.095Z,4316.00
2019-05-01T07:07:23.958Z,4680.00
2019-05-01T07:08:08.096Z,4960.00
2019-05-01T07:09:11.983Z,5180.00
2019-05-01T07:10:08.951Z,5416.00
2019-05-01T07:11:10.844Z,5496.00
2019-05-01T07:12:09.808Z,5400.00
2019-05-01T07:13:10.246Z,5352.00
2019-05-01T07:14:11.048Z,5092.00
2019-05-01T07:15:11.101Z,4768.00
2019-05-01T07:16:11.537Z,4644.00
2019-05-01T07:17:13.566Z,4544.00
2019-05-01T07:18:12.393Z,4568.00
2019-05-01T07:19:12.818Z,4596.00
2019-05-01T07:20:16.802Z,4568.00
2019-05-01T07:21:13.678Z,4604.00
2019-05-01T07:22:14.120Z,4580.00
2019-05-01T07:23:17.495Z,4504.00
2019-05-01T07:24:14.977Z,4520.00
2019-05-01T07:25:15.407Z,4692.00
2019-05-01T07:26:15.836Z,5016.00
2019-05-01T07:27:18.929Z,5532.00
2019-05-01T07:28:16.696Z,6388.00
2019-05-01T07:29:17.119Z,7180.00
2019-05-01T07:30:19.656Z,7808.00
2019-05-01T07:31:17.983Z,9756.00
2019-05-01T07:32:18.429Z,12324.00
2019-05-01T07:33:18.848Z,11048.00
2019-05-01T07:34:21.627Z,9536.00
2019-05-01T07:35:19.716Z,10364.00
2019-05-01T07:36:20.143Z,10772.00
2019-05-01T07:37:20.905Z,10232.00
2019-05-01T07:38:20.998Z,10748.00
2019-05-01T07:39:21.432Z,11000.00
2019-05-01T07:40:28.869Z,12100.00
2019-05-01T07:41:22.295Z,11120.00
2019-05-01T07:42:22.764Z,8708.00
2019-05-01T07:43:23.929Z,8572.00
2019-05-01T07:44:23.587Z,8232.00
2019-05-01T07:45:26.487Z,8008.00
2019-05-01T07:46:24.456Z,8152.00
2019-05-01T07:47:25.924Z,8380.00
2019-05-01T07:48:25.317Z,8572.00
2019-05-01T07:49:25.746Z,8236.00
2019-05-01T07:50:31.525Z,7828.00
2019-05-01T07:51:26.613Z,7740.00
2019-05-01T07:52:27.039Z,7864.00
2019-05-01T07:53:28.361Z,8852.00
2019-05-01T07:54:27.910Z,10492.00
2019-05-01T07:55:28.334Z,11316.00
2019-05-01T07:56:30.049Z,12820.00
2019-05-01T07:57:29.227Z,14036.00
2019-05-01T07:58:29.627Z,22528.00
2019-05-01T07:59:30.071Z,15232.00
2019-05-01T08:00:30.497Z,12328.00
2019-05-01T08:01:30.923Z,11308.00
2019-05-01T08:02:32.990Z,11248.00
2019-05-01T08:03:31.786Z,12044.00
2019-05-01T08:04:36.425Z,15092.00
2019-05-01T08:05:32.657Z,13200.00
2019-05-01T08:06:33.088Z,18624.00
2019-05-01T08:07:33.621Z,18848.00
2019-05-01T08:08:33.954Z,13788.00
2019-05-01T08:09:34.398Z,12784.00
2019-05-01T08:10:34.843Z,13288.00
2019-05-01T08:11:39.187Z,20768.00
2019-05-01T08:12:35.694Z,31520.00
2019-05-01T08:13:36.343Z,22656.00
2019-05-01T08:14:36.594Z,23776.00
2019-05-01T08:15:37.036Z,32320.00
2019-05-01T08:16:37.835Z,19936.00
2019-05-01T08:17:37.862Z,22784.00
2019-05-01T08:18:38.296Z,23456.00
2019-05-01T08:19:39.312Z,18752.00
2019-05-01T08:20:39.179Z,21664.00
2019-05-01T08:21:39.596Z,16704.00
2019-05-01T08:22:40.034Z,22176.00
2019-05-01T08:23:42.672Z,19296.00
2019-05-01T08:24:40.906Z,21728.00
2019-05-01T08:25:41.508Z,14036.00
2019-05-01T08:26:44.170Z,13416.00
2019-05-01T08:27:42.230Z,15052.00
2019-05-01T08:28:42.657Z,18112.00
2019-05-01T08:29:43.813Z,45024.00
2019-05-01T08:30:43.522Z,31328.00
2019-05-01T08:31:43.989Z,20960.00
2019-05-01T08:32:44.401Z,26016.00
2019-05-01T08:33:49.682Z,24384.00
2019-05-01T08:34:49.049Z,22688.00
2019-05-01T08:35:45.705Z,18848.00
2019-05-01T08:36:47.231Z,19968.00
2019-05-01T08:37:46.576Z,25280.00
2019-05-01T08:38:47.025Z,26560.00
2019-05-01T08:39:47.457Z,20352.00
2019-05-01T08:40:50.668Z,35616.00
2019-05-01T08:41:48.331Z,62912.00
2019-05-01T08:42:48.777Z,33504.00
2019-05-01T08:43:54.205Z,25760.00
2019-05-01T08:44:49.659Z,57120.00
2019-05-01T08:45:50.105Z,53696.00
2019-05-01T08:46:51.015Z,32288.00
2019-05-01T08:47:50.986Z,31456.00
2019-05-01T08:48:51.417Z,23392.00
2019-05-01T08:49:51.865Z,23680.00
2019-05-01T08:50:54.496Z,24832.00
2019-05-01T08:51:52.749Z,29952.00
2019-05-01T08:52:53.192Z,26400.00
2019-05-01T08:53:57.954Z,24864.00
2019-05-01T08:54:54.871Z,24480.00
2019-05-01T08:55:54.518Z,23072.00
2019-05-01T08:56:58.102Z,22720.00
2019-05-01T08:57:55.427Z,24768.00
2019-05-01T08:58:55.844Z,25344.00
2019-05-01T09:00:00.260Z,24672.00
2019-05-01T09:00:56.729Z,24448.00
2019-05-01T09:02:08.789Z,30016.00
2019-05-01T09:03:07.906Z,30240.00
2019-05-01T09:03:58.079Z,34496.00
2019-05-01T09:05:02.502Z,32128.00
2019-05-01T09:05:59.086Z,35264.00
2019-05-01T09:06:59.374Z,31968.00
2019-05-01T09:07:59.827Z,26336.00
2019-05-01T09:09:03.068Z,26720.00
2019-05-01T09:10:00.705Z,26368.00
2019-05-01T09:11:02.280Z,20480.00
2019-05-01T09:12:01.590Z,19424.00
2019-05-01T09:13:02.034Z,20352.00
2019-05-01T09:14:02.480Z,26976.00
2019-05-01T09:15:07.093Z,54880.00
2019-05-01T09:16:03.363Z,35296.00
2019-05-01T09:17:03.804Z,34016.00
2019-05-01T09:18:04.251Z,39360.00
2019-05-01T09:19:04.694Z,66080.00
2019-05-01T09:20:05.138Z,25184.00
2019-05-01T09:21:05.574Z,20864.00
2019-05-01T09:22:06.019Z,19648.00
2019-05-01T09:23:09.568Z,19040.00
2019-05-01T09:24:06.908Z,18624.00
2019-05-01T09:25:07.361Z,18304.00
2019-05-01T09:26:14.779Z,17888.00
2019-05-01T09:27:08.243Z,19616.00
2019-05-01T09:28:08.680Z,23136.00
2019-05-01T09:29:11.072Z,18112.00
2019-05-01T09:30:09.560Z,17024.00
2019-05-01T09:31:10.010Z,16992.00
2019-05-01T09:32:11.927Z,17344.00
2019-05-01T09:33:10.894Z,18912.00
2019-05-01T09:34:14.102Z,19328.00
2019-05-01T09:35:15.945Z,19360.00
2019-05-01T09:36:12.215Z,18752.00
2019-05-01T09:37:12.656Z,36544.00
2019-05-01T09:39:47.437Z,18496.00
2019-05-01T09:40:46.647Z,21824.00
2019-05-01T09:42:41.238Z,36288.00
2019-05-01T09:43:41.668Z,24384.00
2019-05-01T09:45:36.245Z,23584.00
2019-05-01T09:46:36.685Z,23296.00
2019-05-01T09:48:31.274Z,22432.00
2019-05-01T09:49:31.707Z,36032.00
2019-05-01T09:51:26.283Z,32800.00
2019-05-01T09:53:59.844Z,42208.00
2019-05-01T09:55:00.286Z,68800.00
2019-05-01T09:56:54.913Z,69984.00
2019-05-01T09:57:55.319Z,60096.00
2019-05-01T09:59:49.917Z,76512.00
2019-05-01T10:00:52.726Z,38688.00
2019-05-01T10:02:45.943Z,71808.00
2019-05-01T10:03:49.413Z,49120.00
2019-05-01T10:05:42.893Z,79488.00
2019-05-01T10:06:41.431Z,83296.00
2019-05-01T10:08:40.078Z,77920.00
2019-05-01T10:09:36.498Z,60576.00
2019-05-01T10:11:35.867Z,88608.00
2019-05-01T10:12:32.560Z,83168.00
2019-05-01T10:14:27.173Z,77248.00
2019-05-01T10:15:27.621Z,78752.00
2019-05-01T10:17:23.224Z,79424.00
2019-05-01T10:18:23.681Z,77600.00
2019-05-01T10:20:18.293Z,78464.00
2019-05-01T10:21:22.522Z,78944.00
2019-05-01T10:23:15.037Z,33600.00
2019-05-01T10:24:14.814Z,29792.00
2019-05-01T10:26:09.434Z,66080.00
2019-05-01T10:27:09.889Z,73856.00
2019-05-01T10:29:04.519Z,81088.00
2019-05-01T10:30:04.975Z,73088.00
2019-05-01T10:31:59.595Z,82720.00
2019-05-01T10:33:00.051Z,81504.00
2019-05-01T10:34:56.892Z,93248.00
2019-05-01T10:35:56.124Z,27872.00
2019-05-01T10:37:50.730Z,88640.00
2019-05-01T10:38:51.188Z,84160.00
2019-05-01T10:40:45.821Z,84000.00
2019-05-01T10:41:47.876Z,83968.00
2019-05-01T10:43:40.896Z,90752.00
2019-05-01T10:44:41.359Z,87968.00
2019-05-01T10:46:36.054Z,91168.00
2019-05-01T10:47:36.533Z,90432.00
2019-05-01T10:49:31.138Z,89856.00
2019-05-01T10:50:31.586Z,89504.00
2019-05-01T10:52:27.183Z,83520.00
2019-05-01T10:53:27.642Z,85408.00
2019-05-01T10:55:22.280Z,89504.00
2019-05-01T10:56:22.731Z,93120.00
2019-05-01T10:58:18.927Z,103360.00
2019-05-01T10:59:17.819Z,99776.00
2019-05-01T11:01:12.457Z,94784.00
2019-05-01T11:02:12.922Z,84832.00
2019-05-01T11:04:21.737Z,85600.00
2019-05-01T11:05:08.969Z,86144.00
2019-05-01T11:07:04.620Z,79936.00
2019-05-01T11:08:05.333Z,79264.00
2019-05-01T11:09:05.514Z,86912.00
2019-05-01T11:10:05.985Z,83424.00
2019-05-01T11:11:06.446Z,88800.00
2019-05-01T11:12:06.905Z,89312.00
2019-05-01T11:13:07.843Z,88032.00
2019-05-01T11:14:07.834Z,87872.00
2019-05-01T11:15:08.300Z,87936.00
2019-05-01T11:16:08.751Z,82624.00
2019-05-01T11:17:09.203Z,89120.00
2019-05-01T11:18:09.674Z,52192.00
2019-05-01T11:19:10.142Z,31680.00
2019-05-01T11:20:10.588Z,36864.00
2019-05-01T11:21:11.056Z,39232.00
2019-05-01T11:22:11.515Z,49856.00
2019-05-01T11:23:11.979Z,65504.00
2019-05-01T11:24:12.464Z,77056.00
2019-05-01T11:25:12.907Z,62176.00
2019-05-01T11:26:13.355Z,30336.00
2019-05-01T11:27:13.809Z,24576.00
2019-05-01T11:28:14.268Z,31008.00
2019-05-01T11:29:14.737Z,63232.00
2019-05-01T11:30:15.210Z,36352.00
2019-05-01T11:31:15.642Z,57280.00
2019-05-01T11:32:16.099Z,74944.00
2019-05-01T11:33:16.556Z,78016.00
2019-05-01T11:34:17.031Z,24128.00
2019-05-01T11:36:50.608Z,21728.00
2019-05-01T11:37:51.114Z,21280.00
2019-05-01T11:39:45.682Z,20064.00
2019-05-01T11:40:46.136Z,19168.00
2019-05-01T11:42:40.905Z,19296.00
2019-05-01T11:43:41.166Z,18656.00
2019-05-01T11:44:41.617Z,17568.00
2019-05-01T11:45:42.092Z,17208.00
2019-05-01T11:46:42.520Z,16048.00
2019-05-01T11:47:42.968Z,15816.00
2019-05-01T11:48:44.601Z,14816.00
2019-05-01T11:49:43.954Z,14084.00
2019-05-01T11:50:44.321Z,12944.00
2019-05-01T11:51:45.883Z,12716.00
2019-05-01T11:52:45.174Z,12736.00
2019-05-01T11:53:45.633Z,13052.00
2019-05-01T11:54:46.091Z,13796.00
2019-05-01T11:55:46.515Z,14164.00
2019-05-01T11:56:46.966Z,13016.00
2019-05-01T11:57:47.395Z,12024.00
2019-05-01T11:58:47.845Z,13676.00
2019-05-01T11:59:48.343Z,14020.00
2019-05-01T12:00:48.736Z,13256.00
2019-05-01T12:01:49.198Z,11644.00
2019-05-01T12:02:49.612Z,11032.00
2019-05-01T12:03:50.050Z,13016.00
2019-05-01T12:04:50.513Z,12764.00
2019-05-01T12:05:50.944Z,12988.00
2019-05-01T12:06:51.379Z,12928.00
2019-05-01T12:09:24.974Z,13964.00
2019-05-01T12:10:25.401Z,15252.00
2019-05-01T12:12:20.972Z,14820.00
2019-05-01T12:13:21.401Z,15928.00
2019-05-01T12:15:15.992Z,14672.00
2019-05-01T12:16:16.427Z,12368.00
2019-05-01T12:18:11.081Z,12412.00
2019-05-01T12:19:11.485Z,13168.00
2019-05-01T12:21:06.047Z,13532.00
2019-05-01T12:22:06.498Z,14088.00
2019-05-01T12:24:01.126Z,14500.00
2019-05-01T12:25:01.549Z,15104.00
2019-05-01T12:26:56.153Z,13932.00
2019-05-01T12:27:56.599Z,14660.00
2019-05-01T12:29:51.193Z,15348.00
2019-05-01T12:32:25.799Z,13664.00
2019-05-01T12:33:26.177Z,13544.00
2019-05-01T12:35:20.772Z,12628.00
2019-05-01T12:37:55.496Z,12372.00
2019-05-01T12:38:54.757Z,12360.00
2019-05-01T12:40:49.342Z,11984.00
2019-05-01T12:41:49.770Z,12668.00
2019-05-01T12:43:44.350Z,13108.00
2019-05-01T12:44:44.778Z,12064.00
2019-05-01T12:46:39.383Z,12788.00
2019-05-01T12:47:39.826Z,14204.00
2019-05-01T12:49:34.434Z,12936.00
2019-05-01T12:50:34.863Z,13268.00
2019-05-01T12:52:29.511Z,11716.00
2019-05-01T12:53:29.905Z,13976.00
2019-05-01T12:55:24.671Z,13552.00
2019-05-01T12:56:24.984Z,13168.00
2019-05-01T12:57:25.419Z,13100.00
2019-05-01T12:58:25.860Z,11472.00
2019-05-01T12:59:26.306Z,11856.00
2019-05-01T13:00:26.829Z,10036.00
2019-05-01T13:01:27.251Z,8928.00
2019-05-01T13:02:27.634Z,8164.00
2019-05-01T13:03:28.062Z,7276.00
2019-05-01T13:04:28.505Z,7764.00
2019-05-01T13:05:28.949Z,7080.00
2019-05-01T13:06:29.384Z,8052.00
2019-05-01T13:07:29.825Z,8740.00
2019-05-01T13:08:30.297Z,8976.00
2019-05-01T13:09:30.707Z,9572.00
2019-05-01T13:10:31.148Z,9836.00
2019-05-01T13:11:31.598Z,8700.00
2019-05-01T13:12:32.035Z,8300.00
2019-05-01T13:13:32.483Z,8724.00
2019-05-01T13:14:32.895Z,9208.00
2019-05-01T13:15:33.343Z,8736.00
2019-05-01T13:16:33.777Z,8676.00
2019-05-01T13:17:34.217Z,8948.00
2019-05-01T13:18:34.651Z,8608.00
2019-05-01T13:19:35.100Z,8576.00
2019-05-01T13:20:35.534Z,8604.00
2019-05-01T13:21:35.980Z,8580.00
2019-05-01T13:22:36.428Z,8412.00
2019-05-01T13:23:36.848Z,7872.00
2019-05-01T13:24:37.287Z,7860.00
2019-05-01T13:25:37.736Z,8028.00
2019-05-01T13:26:38.166Z,7640.00
2019-05-01T13:27:38.608Z,7296.00
2019-05-01T13:28:39.042Z,6984.00
2019-05-01T13:29:39.497Z,6744.00
2019-05-01T13:30:39.924Z,6728.00
2019-05-01T13:31:40.357Z,6592.00
2019-05-01T13:32:40.802Z,6476.00
2019-05-01T13:33:41.239Z,6352.00